Time;durP1;ratioP1;P1;durP2;ratioP2;P2;SDS_P1;SDS_P2;PMS_P1;PMS_P2;Temp;Humidity;BMP_temperature;BMP_pressure;BME280_temperature;BME280_humidity;BME280_pressure;Samples;Min_cycle;Max_cycle;Signal;HPM_P1;HPM_P2
2022/07/28 07:05:43;;;;;;;5.57;3.00;;;;;;;22.39;51.93;98848.94;5156562;27;20144;-79
2022/07/28 07:08:10;;;;;;;7.32;2.80;;;;;;;22.75;52.36;98854.59;5151538;27;20402;-79
2022/07/28 07:10:36;;;;;;;4.13;2.40;;;;;;;23.09;50.41;98837.47;5144269;27;20086;-79
2022/07/28 07:13:03;;;;;;;9.02;3.10;;;;;;;23.09;50.83;98829.16;5145313;27;20488;-79
2022/07/28 07:15:30;;;;;;;5.30;2.53;;;;;;;23.33;49.75;98833.09;5149286;27;20043;-79
2022/07/28 07:17:56;;;;;;;5.80;2.80;;;;;;;23.53;49.31;98823.09;5149277;27;20043;-79
2022/07/28 07:20:30;;;;;;;3.83;2.15;;;;;;;23.82;49.24;98836.38;5143535;27;20044;-79
2022/07/28 07:23:00;;;;;;;3.97;2.20;;;;;;;23.76;48.98;98815.31;5131351;27;20122;-79
2022/07/28 07:25:27;;;;;;;4.53;2.83;;;;;;;23.07;50.54;98820.28;5131833;27;20050;-79
2022/07/28 07:27:53;;;;;;;5.93;2.50;;;;;;;23.57;50.09;98810.31;5128678;27;20044;-79
2022/07/28 07:30:20;;;;;;;2.60;2.22;;;;;;;23.92;48.81;98808.66;5127856;28;20541;-79
2022/07/28 07:32:47;;;;;;;6.43;2.50;;;;;;;24.17;48.35;98818.81;5126036;28;20134;-79
2022/07/28 07:35:13;;;;;;;5.63;2.55;;;;;;;24.38;48.07;98825.13;5128458;28;20054;-79
2022/07/28 07:37:40;;;;;;;4.28;2.55;;;;;;;24.05;48.23;98804.44;5128624;28;20134;-79
2022/07/28 07:40:09;;;;;;;3.15;2.15;;;;;;;24.09;47.83;98813.00;5128396;28;20089;-79
2022/07/28 07:42:36;;;;;;;4.40;2.70;;;;;;;24.35;47.45;98803.47;5126951;28;20047;-79
2022/07/28 07:45:03;;;;;;;6.50;2.58;;;;;;;24.62;47.35;98818.94;5125821;28;20043;-79
2022/07/28 07:47:30;;;;;;;7.68;2.40;;;;;;;24.38;48.02;98839.03;5127426;28;20066;-79
2022/07/28 07:49:57;;;;;;;4.75;2.65;;;;;;;24.26;47.88;98830.19;5128194;28;20047;-79
2022/07/28 07:52:23;;;;;;;3.33;2.50;;;;;;;24.25;48.17;98834.06;5127475;28;20121;-79
2022/07/28 07:54:50;;;;;;;7.07;2.63;;;;;;;24.12;48.98;98823.59;5127322;28;20039;-79
2022/07/28 07:57:18;;;;;;;5.78;3.10;;;;;;;23.84;49.36;98803.63;5119399;28;20054;-78
2022/07/28 07:59:44;;;;;;;9.30;2.92;;;;;;;23.90;49.82;98832.25;5126571;27;20067;-78
2022/07/28 08:02:11;;;;;;;6.82;2.80;;;;;;;23.54;50.37;98812.84;5125151;27;20043;-79
2022/07/28 08:04:37;;;;;;;3.03;2.58;;;;;;;23.25;51.25;98800.34;5127499;28;20049;-78
2022/07/28 08:07:04;;;;;;;3.63;2.67;;;;;;;23.51;51.08;98814.22;5127719;28;20059;-79
2022/07/28 08:09:31;;;;;;;5.90;2.42;;;;;;;23.77;50.96;98800.31;5127484;28;20058;-80
2022/07/28 08:11:57;;;;;;;4.68;2.72;;;;;;;23.92;50.04;98824.44;5127310;28;20051;-81
2022/07/28 08:14:25;;;;;;;3.83;2.78;;;;;;;23.91;50.49;98820.84;5127276;28;20085;-79
2022/07/28 08:16:53;;;;;;;6.40;2.80;;;;;;;24.09;50.10;98807.47;5112275;28;20069;-79
2022/07/28 08:19:19;;;;;;;6.53;2.78;;;;;;;24.56;48.74;98803.38;5111322;28;20497;-79
2022/07/28 08:21:46;;;;;;;5.78;2.60;;;;;;;24.29;49.64;98831.56;5113471;28;20497;-79
2022/07/28 08:24:13;;;;;;;8.02;3.00;;;;;;;24.10;49.89;98800.81;5112908;28;20414;-80
2022/07/28 08:26:40;;;;;;;5.18;2.90;;;;;;;24.06;50.21;98808.03;5113168;28;20104;-79
2022/07/28 08:29:08;;;;;;;4.82;2.90;;;;;;;24.03;49.78;98799.16;5113470;28;20062;-79
2022/07/28 08:31:36;;;;;;;4.97;3.00;;;;;;;24.26;49.43;98812.69;5112545;28;20055;-78
2022/07/28 08:34:03;;;;;;;5.53;3.35;;;;;;;24.29;49.36;98804.63;5110716;28;20051;-79
2022/07/28 08:36:30;;;;;;;8.40;3.15;;;;;;;24.26;49.32;98790.47;5112375;28;20036;-79
2022/07/28 08:38:57;;;;;;;4.45;2.88;;;;;;;24.58;49.06;98803.94;5113336;28;20048;-80
2022/07/28 08:41:30;;;;;;;8.40;3.10;;;;;;;25.00;48.71;98804.53;5112623;28;20048;-80
2022/07/28 08:43:59;;;;;;;4.75;2.70;;;;;;;25.03;47.26;98810.34;5112544;28;20334;-79
2022/07/28 08:46:26;;;;;;;6.15;3.28;;;;;;;24.78;47.72;98813.28;5112109;28;20040;-79
2022/07/28 08:48:54;;;;;;;5.15;3.10;;;;;;;24.84;48.78;98817.69;5112931;28;20063;-79
2022/07/28 08:51:22;;;;;;;6.95;3.50;;;;;;;24.68;47.75;98814.19;5113191;28;20058;-79
2022/07/28 08:53:49;;;;;;;3.83;3.33;;;;;;;24.83;48.48;98796.59;5111130;28;20051;-79
2022/07/28 08:56:16;;;;;;;4.13;2.78;;;;;;;25.04;47.76;98806.44;5113474;28;20048;-80
2022/07/28 08:58:43;;;;;;;4.43;3.38;;;;;;;24.86;47.71;98798.81;5113201;28;20052;-80
2022/07/28 09:01:12;;;;;;;9.27;3.15;;;;;;;25.07;46.80;98799.47;5112149;28;20052;-81
2022/07/28 09:03:39;;;;;;;5.95;2.90;;;;;;;25.01;47.22;98797.88;5104778;28;20146;-78
2022/07/28 09:06:07;;;;;;;5.10;2.95;;;;;;;24.98;47.37;98787.31;5113083;28;20047;-80
2022/07/28 09:08:33;;;;;;;3.80;2.72;;;;;;;25.09;45.89;98800.00;5112227;28;20044;-81
2022/07/28 09:11:00;;;;;;;5.53;2.95;;;;;;;25.11;46.52;98789.41;5111254;28;20113;-81
2022/07/28 09:13:27;;;;;;;4.47;2.63;;;;;;;25.21;46.41;98797.69;5111107;28;20060;-80
2022/07/28 09:15:53;;;;;;;4.07;2.70;;;;;;;25.36;46.05;98780.06;5112663;28;20054;-80
2022/07/28 09:18:20;;;;;;;4.03;2.70;;;;;;;25.88;45.62;98782.34;5110512;28;20073;-78
2022/07/28 09:20:46;;;;;;;5.22;2.88;;;;;;;25.66;44.96;98780.09;5111341;27;20407;-81
2022/07/28 09:23:14;;;;;;;4.63;2.70;;;;;;;25.91;45.01;98770.59;5111812;28;20070;-80
2022/07/28 09:25:41;;;;;;;3.60;2.92;;;;;;;26.13;44.49;98772.91;5112587;28;20047;-80
2022/07/28 09:28:10;;;;;;;5.10;2.65;;;;;;;26.04;43.85;98758.78;5111790;28;20059;-80
2022/07/28 09:30:39;;;;;;;7.60;2.60;;;;;;;26.30;43.98;98777.97;5112980;28;20497;-79
2022/07/28 09:33:15;;;;;;;6.57;2.92;;;;;;;26.32;42.93;98773.75;5110691;28;20096;-79
2022/07/28 09:35:50;;;;;;;3.78;2.42;;;;;;;26.19;42.93;98754.97;5108518;28;20525;-79
2022/07/28 09:38:19;;;;;;;6.50;2.55;;;;;;;26.42;43.04;98760.81;5108918;28;20055;-78
2022/07/28 09:40:59;;;;;;;4.55;2.80;;;;;;;26.61;42.03;98764.44;5112003;28;20047;-80
2022/07/28 09:43:36;;;;;;;4.38;2.78;;;;;;;26.90;43.23;98752.34;5109605;27;20490;-80
2022/07/28 09:46:04;;;;;;;3.65;2.70;;;;;;;27.06;42.17;98758.50;5110773;28;20052;-80
2022/07/28 09:48:31;;;;;;;4.05;2.90;;;;;;;26.96;42.02;98761.47;5112103;28;20495;-80
2022/07/28 09:51:10;;;;;;;5.32;2.33;;;;;;;26.76;41.66;98751.47;5112167;28;20044;-79
2022/07/28 09:53:38;;;;;;;8.15;2.92;;;;;;;27.30;41.39;98760.34;5112073;28;20529;-79
2022/07/28 09:56:05;;;;;;;4.15;2.40;;;;;;;27.61;40.36;98741.13;5111170;28;20044;-79
2022/07/28 09:58:32;;;;;;;4.32;2.67;;;;;;;27.34;40.75;98765.03;5112163;28;20067;-79
2022/07/28 10:01:03;;;;;;;3.20;2.20;;;;;;;26.98;41.04;98754.44;5112008;28;20043;-79
2022/07/28 10:03:31;;;;;;;3.58;2.42;;;;;;;26.52;42.30;98755.09;5110166;28;20079;-79
2022/07/28 10:05:58;;;;;;;5.82;2.63;;;;;;;26.49;42.13;98741.78;5111569;28;20050;-81
2022/07/28 10:08:43;;;;;;;3.28;2.30;;;;;;;27.06;41.43;98757.69;5112009;28;20051;-79
2022/07/28 10:11:10;;;;;;;8.30;2.83;;;;;;;27.39;40.38;98730.63;5110840;28;20052;-80
2022/07/28 10:13:51;;;;;;;5.70;3.10;;;;;;;27.54;40.49;98747.09;5110987;28;20494;-80
2022/07/28 10:16:18;;;;;;;4.45;2.58;;;;;;;27.41;39.81;98721.94;5111657;28;20044;-79
2022/07/28 10:18:46;;;;;;;5.40;2.50;;;;;;;27.47;39.83;98746.66;5110862;28;20051;-78
2022/07/28 10:21:14;;;;;;;5.05;2.53;;;;;;;27.39;39.61;98738.19;5111475;28;20051;-80
2022/07/28 10:23:46;;;;;;;3.20;2.67;;;;;;;27.41;40.31;98747.88;5111436;28;20051;-79
2022/07/28 10:26:14;;;;;;;6.97;3.45;;;;;;;27.32;40.09;98716.22;5107423;28;20048;-78
2022/07/28 10:28:47;;;;;;;6.05;2.22;;;;;;;27.76;39.14;98739.16;5105577;28;20136;-78
2022/07/28 10:31:17;;;;;;;4.05;2.42;;;;;;;27.66;39.51;98732.63;5110386;28;20071;-80
2022/07/28 10:33:50;;;;;;;4.10;2.45;;;;;;;27.93;39.21;98724.56;5089017;28;20052;-80
2022/07/28 10:36:18;;;;;;;6.53;2.63;;;;;;;27.95;38.41;98717.53;5091267;28;20101;-80
2022/07/28 10:38:46;;;;;;;4.55;2.47;;;;;;;27.76;38.43;98706.47;5093242;28;20051;-82
2022/07/28 10:41:14;;;;;;;6.38;2.65;;;;;;;28.18;39.20;98718.50;5110763;28;20398;-80
2022/07/28 10:43:41;;;;;;;3.28;2.40;;;;;;;28.08;38.68;98699.97;5101520;28;20048;-80
2022/07/28 10:46:15;;;;;;;5.85;3.10;;;;;;;27.96;38.29;98716.44;5103714;28;20051;-80
2022/07/28 10:48:42;;;;;;;6.35;2.65;;;;;;;28.26;37.72;98714.13;5103773;28;20051;-79
2022/07/28 10:51:09;;;;;;;4.22;2.60;;;;;;;28.53;37.95;98685.28;5110677;28;20134;-79
2022/07/28 10:53:43;;;;;;;4.57;2.72;;;;;;;28.36;37.75;98704.69;5110318;28;20059;-80
2022/07/28 10:56:15;;;;;;;6.05;3.17;;;;;;;28.24;38.20;98711.66;5111033;28;20043;-78
2022/07/28 10:58:49;;;;;;;4.05;2.25;;;;;;;28.46;37.91;98712.03;5111381;28;20129;-79
2022/07/28 11:01:34;;;;;;;9.82;2.53;;;;;;;28.56;37.16;98711.75;5108471;28;20044;-80
2022/07/28 11:04:01;;;;;;;2.88;2.22;;;;;;;28.16;37.87;98708.75;5108824;28;20073;-80
2022/07/28 11:06:30;;;;;;;3.70;2.53;;;;;;;27.72;37.86;98685.91;5110696;28;21526;-79
2022/07/28 11:08:58;;;;;;;5.38;2.20;;;;;;;28.36;37.84;98707.47;5110773;28;20058;-80
2022/07/28 11:11:45;;;;;;;5.30;2.50;;;;;;;28.86;36.69;98698.22;5111096;28;20048;-78
2022/07/28 11:14:35;;;;;;;4.10;2.15;;;;;;;29.01;36.64;98716.59;5110231;28;20054;-80
2022/07/28 11:17:13;;;;;;;4.18;2.33;;;;;;;29.12;35.90;98704.84;5109734;28;20468;-80
2022/07/28 11:19:51;;;;;;;3.67;2.53;;;;;;;28.62;36.98;98687.34;5103292;28;20048;-79
2022/07/28 11:22:27;;;;;;;4.07;2.40;;;;;;;28.80;36.62;98688.31;5109384;28;20043;-80
2022/07/28 11:25:15;;;;;;;4.15;2.47;;;;;;;29.43;35.40;98700.44;5109748;28;20380;-80
2022/07/28 11:28:05;;;;;;;6.03;2.40;;;;;;;29.46;35.03;98696.97;5111096;28;20062;-79
2022/07/28 11:30:51;;;;;;;7.82;2.50;;;;;;;28.64;36.09;98683.09;5109951;28;20414;-79
2022/07/28 11:33:19;;;;;;;3.42;2.17;;;;;;;28.65;36.34;98689.50;5107802;28;20048;-79
2022/07/28 11:35:55;;;;;;;4.50;2.47;;;;;;;28.58;35.48;98673.97;5110684;28;20056;-80
2022/07/28 11:38:22;;;;;;;4.35;2.38;;;;;;;28.42;36.93;98692.25;5108751;28;20494;-80
2022/07/28 11:40:50;;;;;;;3.88;2.35;;;;;;;28.02;37.02;98655.72;5109642;28;20058;-79
2022/07/28 11:43:29;;;;;;;5.07;2.88;;;;;;;27.95;37.23;98699.97;5109705;28;20051;-79
2022/07/28 11:46:24;;;;;;;2.95;2.13;;;;;;;27.91;37.94;98705.31;5110319;28;20059;-79
2022/07/28 11:49:19;;;;;;;4.22;2.40;;;;;;;27.96;37.83;98674.53;5109109;28;20047;-79
2022/07/28 11:52:22;;;;;;;3.22;2.47;;;;;;;28.10;36.76;98696.06;5113171;28;20143;-79
2022/07/28 11:54:54;;;;;;;3.20;2.47;;;;;;;27.90;37.10;98675.75;5113983;28;20138;-80
2022/07/28 11:57:23;;;;;;;4.63;2.72;;;;;;;27.59;38.02;98695.09;5111899;28;20051;-79
2022/07/28 11:59:58;;;;;;;6.23;2.40;;;;;;;27.80;37.48;98678.75;5114166;28;20051;-79
2022/07/28 12:02:48;;;;;;;;;;;;;;;;;;;;;
2022/07/28 12:05:16;;;;;;;4.63;2.78;;;;;;;28.27;36.76;98670.25;5113697;28;20083;-79
2022/07/28 12:07:48;;;;;;;3.35;2.45;;;;;;;28.54;36.86;98672.94;5114268;28;20048;-79
2022/07/28 12:10:29;;;;;;;8.65;2.60;;;;;;;28.51;37.36;98673.56;5114176;28;20443;-78
2022/07/28 12:12:57;;;;;;;4.28;2.53;;;;;;;28.35;35.58;98666.69;5112677;28;20050;-79
2022/07/28 12:15:26;;;;;;;3.42;2.53;;;;;;;28.34;35.61;98676.22;5112188;28;20058;-79
2022/07/28 12:17:54;;;;;;;5.68;2.28;;;;;;;28.17;36.59;98674.91;5111718;28;20040;-79
2022/07/28 12:20:21;;;;;;;4.38;2.72;;;;;;;27.87;37.03;98659.63;5113812;28;20051;-79
2022/07/28 12:22:58;;;;;;;4.20;2.75;;;;;;;28.40;37.23;98673.00;5113014;28;20490;-80
2022/07/28 12:25:25;;;;;;;6.25;2.40;;;;;;;28.95;35.67;98658.00;5113925;28;20052;-79
2022/07/28 12:27:52;;;;;;;4.00;2.28;;;;;;;29.27;35.84;98666.44;5113473;28;20043;-80
2022/07/28 12:30:26;;;;;;;7.18;2.67;;;;;;;29.72;34.99;98659.84;5104004;28;20127;-79
2022/07/28 12:32:53;;;;;;;2.40;1.90;;;;;;;30.23;33.61;98649.97;5109474;28;20052;-80
2022/07/28 12:35:21;;;;;;;3.13;2.15;;;;;;;30.40;32.96;98656.72;5113805;28;20083;-79
2022/07/28 12:37:49;;;;;;;4.80;2.65;;;;;;;30.44;31.79;98644.56;5113837;28;20044;-80
2022/07/28 12:40:16;;;;;;;5.05;2.60;;;;;;;30.64;32.04;98651.47;5113801;28;20380;-79
2022/07/28 12:42:43;;;;;;;5.18;2.17;;;;;;;29.95;31.98;98633.44;5113018;28;20047;-79
2022/07/28 12:45:11;;;;;;;6.82;2.25;;;;;;;30.49;31.69;98615.53;5112509;28;20056;-79
2022/07/28 12:47:39;;;;;;;3.97;2.30;;;;;;;30.60;32.30;98646.88;5112533;28;20074;-80
2022/07/28 12:50:13;;;;;;;4.78;2.20;;;;;;;31.05;31.08;98624.06;5113338;28;20048;-81
2022/07/28 12:52:41;;;;;;;4.43;2.75;;;;;;;31.15;31.17;98642.50;5112635;28;20075;-79
2022/07/28 12:55:21;;;;;;;2.45;2.22;;;;;;;31.31;30.84;98643.59;5113559;28;20384;-79
2022/07/28 12:57:49;;;;;;;3.63;2.22;;;;;;;31.50;30.47;98615.13;5092807;28;20047;-79
2022/07/28 13:00:18;;;;;;;3.35;2.17;;;;;;;31.74;29.28;98630.56;5104981;28;20047;-79
2022/07/28 13:02:50;;;;;;;4.53;2.03;;;;;;;31.97;29.52;98630.28;5111694;28;20108;-79
2022/07/28 13:05:31;;;;;;;3.45;2.17;;;;;;;31.19;30.35;98615.41;5112665;28;20070;-79
2022/07/28 13:08:01;;;;;;;7.15;2.25;;;;;;;31.63;30.36;98620.88;5112052;28;20071;-79
2022/07/28 13:10:28;;;;;;;2.42;1.77;;;;;;;31.82;30.38;98632.50;5112844;28;20542;-79
2022/07/28 13:13:07;;;;;;;3.83;2.40;;;;;;;32.07;29.75;98610.22;5108364;28;20130;-79
2022/07/28 13:15:34;;;;;;;6.47;2.15;;;;;;;32.44;28.42;98627.28;5104275;28;20061;-79
2022/07/28 13:18:03;;;;;;;5.57;1.80;;;;;;;32.66;28.83;98630.97;5110791;28;20051;-79
2022/07/28 13:20:33;;;;;;;9.43;2.42;;;;;;;32.76;28.44;98638.94;5112099;28;20139;-79
2022/07/28 13:23:00;;;;;;;;;;;;;;;32.52;28.27;98631.19;5094131;28;20116;-79
2022/07/28 13:25:26;;;;;;;3.17;2.30;;;;;;;31.91;28.68;98636.06;5112462;28;20288;-79
2022/07/28 13:27:53;;;;;;;3.25;2.20;;;;;;;32.09;29.23;98610.69;5110266;27;20047;-79
2022/07/28 13:30:19;;;;;;;5.57;2.45;;;;;;;31.90;30.04;98613.94;5112370;28;20066;-78
2022/07/28 13:32:46;;;;;;;4.53;2.42;;;;;;;31.51;29.42;98599.94;5110283;28;20059;-79
2022/07/28 13:35:14;;;;;;;5.40;2.22;;;;;;;31.48;29.31;98611.00;5112227;28;20042;-79
2022/07/28 13:37:40;;;;;;;5.43;2.45;;;;;;;31.51;29.60;98604.69;5112654;28;20074;-79
2022/07/28 13:40:08;;;;;;;6.00;2.28;;;;;;;31.46;29.78;98608.53;5110949;28;20059;-79
2022/07/28 13:42:34;;;;;;;2.40;2.20;;;;;;;31.20;29.59;98625.50;5102887;28;20510;-79
2022/07/28 13:45:01;;;;;;;3.25;2.05;;;;;;;31.02;30.88;98608.69;5110922;28;20044;-79
2022/07/28 13:47:27;;;;;;;3.55;2.20;;;;;;;30.94;30.46;98592.69;5112163;28;20048;-80
2022/07/28 13:49:54;;;;;;;4.78;2.30;;;;;;;30.90;30.49;98597.31;5108141;27;20075;-79
2022/07/28 13:52:23;;;;;;;9.00;3.20;;;;;;;30.63;31.15;98590.09;5110912;28;20481;-79
2022/07/28 13:54:49;;;;;;;4.00;2.40;;;;;;;30.16;32.10;98597.19;5105333;28;20044;-78
2022/07/28 13:57:16;;;;;;;4.65;2.22;;;;;;;30.21;31.83;98595.38;5111725;28;20056;-79
2022/07/28 13:59:43;;;;;;;3.65;2.63;;;;;;;30.02;32.25;98593.72;5109741;28;20051;-79
2022/07/28 14:02:11;;;;;;;5.78;1.98;;;;;;;30.21;31.76;98587.78;5108363;27;20739;-79
2022/07/28 14:04:37;;;;;;;3.95;2.17;;;;;;;30.40;31.41;98581.88;5108733;27;20545;-79
2022/07/28 14:07:04;;;;;;;6.28;2.03;;;;;;;30.59;31.34;98566.69;5106433;27;20043;-79
2022/07/28 14:09:32;;;;;;;3.03;2.03;;;;;;;30.84;30.88;98590.22;5111350;28;20056;-79
2022/07/28 14:12:02;;;;;;;3.95;2.13;;;;;;;30.82;30.79;98575.72;5111069;28;20071;-78
2022/07/28 14:14:28;;;;;;;6.13;2.42;;;;;;;30.92;30.29;98577.34;5090869;28;20465;-79
2022/07/28 14:16:55;;;;;;;5.90;2.33;;;;;;;31.14;30.18;98567.88;5091360;28;20150;-79
2022/07/28 14:19:22;;;;;;;3.92;2.40;;;;;;;31.19;29.89;98576.94;5091300;28;20052;-79
2022/07/28 14:21:49;;;;;;;5.85;2.22;;;;;;;31.49;29.67;98570.53;5095815;28;20486;-80
2022/07/28 14:24:16;;;;;;;6.25;2.35;;;;;;;31.71;29.49;98573.06;5110833;28;20046;-79
2022/07/28 14:26:43;;;;;;;2.55;2.10;;;;;;;31.56;30.23;98570.84;5109715;28;20052;-79
2022/07/28 14:29:10;;;;;;;6.50;1.80;;;;;;;31.24;29.51;98559.91;5111434;28;20499;-79
2022/07/28 14:31:37;;;;;;;5.07;2.00;;;;;;;31.12;29.48;98553.34;5111271;28;20100;-79
2022/07/28 14:34:03;;;;;;;4.65;2.40;;;;;;;30.98;29.55;98559.16;5107639;28;20043;-79
2022/07/28 14:36:30;;;;;;;4.55;2.00;;;;;;;31.36;30.13;98549.94;5108649;28;20047;-79
2022/07/28 14:38:57;;;;;;;4.90;2.00;;;;;;;30.82;29.71;98553.28;5111270;28;20055;-79
2022/07/28 14:41:27;;;;;;;5.07;2.05;;;;;;;30.27;30.93;98560.41;5111395;28;20587;-79
2022/07/28 14:43:56;;;;;;;;;;;;;;;30.35;31.31;98560.41;5111054;28;20047;-80
2022/07/28 14:46:22;;;;;;;7.97;2.10;;;;;;;30.07;31.55;98559.13;5110852;28;19920;-79
2022/07/28 14:48:49;;;;;;;3.20;1.95;;;;;;;30.26;30.78;98539.13;5111099;28;20051;-80
2022/07/28 14:51:16;;;;;;;3.67;2.15;;;;;;;30.28;31.16;98545.25;5109081;28;20051;-78
2022/07/28 14:53:42;;;;;;;6.43;2.05;;;;;;;29.94;31.23;98563.72;5101880;28;20047;-79
2022/07/28 14:56:12;;;;;;;5.03;2.40;;;;;;;30.39;31.88;98551.34;5110630;28;20478;-79
2022/07/28 14:58:39;;;;;;;4.50;2.10;;;;;;;30.77;30.47;98531.00;5111029;28;20050;-79
2022/07/28 15:01:07;;;;;;;2.67;1.98;;;;;;;31.01;29.72;98541.66;5087662;28;20051;-79
2022/07/28 15:03:34;;;;;;;2.60;1.98;;;;;;;31.26;29.37;98551.16;5089779;28;20066;-80
2022/07/28 15:06:00;;;;;;;6.82;2.35;;;;;;;31.21;29.61;98543.75;5104549;28;20131;-79
2022/07/28 15:08:27;;;;;;;5.63;2.40;;;;;;;31.15;30.33;98541.44;5110853;28;20141;-79
2022/07/28 15:10:54;;;;;;;3.70;2.05;;;;;;;31.19;29.36;98548.03;5109394;28;20473;-79
2022/07/28 15:13:20;;;;;;;4.80;2.40;;;;;;;31.09;29.74;98542.78;5110067;28;20044;-79
2022/07/28 15:15:47;;;;;;;4.10;2.33;;;;;;;30.94;30.17;98546.94;5110819;28;20057;-80
2022/07/28 15:18:15;;;;;;;2.58;2.00;;;;;;;30.66;28.91;98531.34;5110929;28;20054;-79
2022/07/28 15:20:42;;;;;;;3.13;2.20;;;;;;;30.94;29.51;98544.97;5101386;28;20059;-79
2022/07/28 15:23:09;;;;;;;5.38;3.28;;;;;;;31.42;29.29;98552.22;5109930;28;20580;-79
2022/07/28 15:25:36;;;;;;;4.40;2.55;;;;;;;31.73;27.92;98558.69;5111592;28;20051;-80
2022/07/28 15:28:03;;;;;;;10.05;2.30;;;;;;;31.48;28.27;98547.25;5113340;28;20150;-80
2022/07/28 15:30:29;;;;;;;2.60;2.08;;;;;;;30.95;29.15;98528.97;5114062;28;20043;-80
2022/07/28 15:32:56;;;;;;;4.43;2.30;;;;;;;31.52;28.07;98531.34;5112160;28;20051;-80
2022/07/28 15:35:25;;;;;;;5.65;2.00;;;;;;;31.74;28.19;98538.66;5112008;28;20056;-80
2022/07/28 15:37:51;;;;;;;6.25;2.55;;;;;;;31.82;27.73;98522.91;5114303;28;20044;-80
2022/07/28 15:40:18;;;;;;;8.57;2.20;;;;;;;31.96;26.93;98544.31;5114874;28;20483;-80
2022/07/28 15:42:45;;;;;;;2.83;1.75;;;;;;;31.90;26.72;98536.09;5113881;28;20047;-79
2022/07/28 15:45:11;;;;;;;2.45;2.00;;;;;;;31.39;26.62;98521.16;5113825;28;20044;-80
2022/07/28 15:47:38;;;;;;;5.95;2.30;;;;;;;30.97;27.98;98533.09;5114499;28;20438;-81
2022/07/28 15:50:05;;;;;;;2.67;1.95;;;;;;;30.76;26.97;98532.16;5113308;28;20051;-80
2022/07/28 15:52:33;;;;;;;7.90;1.95;;;;;;;30.66;27.78;98520.13;5104744;28;20076;-79
2022/07/28 15:55:00;;;;;;;6.80;2.10;;;;;;;30.97;26.91;98513.44;5114288;28;20409;-83
2022/07/28 15:57:26;;;;;;;3.25;2.30;;;;;;;31.17;28.36;98522.28;5114460;28;20090;-80
2022/07/28 15:59:53;;;;;;;7.25;2.35;;;;;;;30.84;28.60;98509.69;5113924;28;20406;-80
2022/07/28 16:02:20;;;;;;;5.47;2.30;;;;;;;31.11;28.33;98510.44;5112084;28;20490;-80
2022/07/28 16:04:48;;;;;;;5.05;2.55;;;;;;;30.86;28.88;98501.78;5111734;28;20055;-79
2022/07/28 16:07:22;;;;;;;2.25;1.88;;;;;;;30.91;29.14;98522.38;5113705;28;20088;-79
2022/07/28 16:09:50;;;;;;;2.85;2.15;;;;;;;30.80;28.88;98522.72;5113861;28;20056;-79
2022/07/28 16:12:17;;;;;;;3.42;2.08;;;;;;;30.41;28.91;98518.22;5113280;28;20055;-79
2022/07/28 16:14:43;;;;;;;2.80;2.00;;;;;;;30.11;28.99;98512.44;5113769;28;20047;-79
2022/07/28 16:17:11;;;;;;;2.90;2.20;;;;;;;30.06;28.32;98518.22;5112517;28;20134;-80
2022/07/28 16:19:37;;;;;;;3.38;2.08;;;;;;;29.93;28.67;98512.47;5104780;28;20044;-79
2022/07/28 16:22:04;;;;;;;3.17;1.90;;;;;;;29.89;29.15;98500.25;5113010;28;20086;-79
2022/07/28 16:24:30;;;;;;;5.40;1.95;;;;;;;29.86;29.21;98480.50;5112531;28;20055;-79
2022/07/28 16:26:58;;;;;;;3.05;2.22;;;;;;;29.84;28.83;98475.22;5113171;28;20046;-79
2022/07/28 16:29:25;;;;;;;2.75;1.80;;;;;;;30.04;28.79;98486.91;5113603;28;20059;-79
2022/07/28 16:31:51;;;;;;;3.30;1.80;;;;;;;29.93;28.09;98497.59;5112141;28;20506;-79
2022/07/28 16:34:18;;;;;;;7.30;2.08;;;;;;;29.82;28.03;98491.50;5112699;28;20058;-80
2022/07/28 16:36:45;;;;;;;5.45;2.50;;;;;;;30.07;28.49;98486.25;5110843;28;20040;-79
2022/07/28 16:39:11;;;;;;;4.80;2.40;;;;;;;30.16;28.64;98468.25;5112863;28;20051;-80
2022/07/28 16:41:38;;;;;;;5.53;2.15;;;;;;;30.36;28.86;98497.56;5111791;27;20080;-80
2022/07/28 16:44:06;;;;;;;6.15;2.00;;;;;;;30.44;28.69;98495.13;5112212;28;20047;-80
2022/07/28 16:46:32;;;;;;;6.18;2.38;;;;;;;30.02;28.71;98473.25;5113100;28;20051;-80
2022/07/28 16:48:59;;;;;;;2.47;1.80;;;;;;;29.94;29.43;98483.28;5113237;28;20052;-80
2022/07/28 16:51:26;;;;;;;2.58;2.15;;;;;;;29.95;29.74;98479.31;5110224;28;20551;-79
2022/07/28 16:53:55;;;;;;;5.43;2.33;;;;;;;29.86;29.75;98498.13;5112363;28;20052;-79
2022/07/28 16:56:21;;;;;;;2.38;2.00;;;;;;;29.79;29.61;98469.72;5096163;28;20048;-80
2022/07/28 16:58:48;;;;;;;5.22;2.00;;;;;;;30.00;29.61;98486.72;5115564;28;20340;-79
2022/07/28 17:01:16;;;;;;;4.63;2.10;;;;;;;29.82;29.30;98463.50;5118226;28;20055;-81
2022/07/28 17:03:43;;;;;;;6.80;2.35;;;;;;;29.78;29.73;98465.28;5115126;28;20094;-80
2022/07/28 17:06:10;;;;;;;4.43;1.95;;;;;;;29.80;29.51;98465.78;5111596;28;20383;-80
2022/07/28 17:08:36;;;;;;;9.18;2.50;;;;;;;29.55;30.16;98459.00;5112776;28;20071;-80
2022/07/28 17:11:03;;;;;;;2.05;1.85;;;;;;;29.76;30.46;98462.81;5112566;28;20051;-80
2022/07/28 17:13:30;;;;;;;7.45;2.20;;;;;;;29.68;29.95;98483.25;5112494;28;20043;-80
2022/07/28 17:15:58;;;;;;;11.65;2.05;;;;;;;29.51;30.28;98470.06;5112868;28;20055;-80
2022/07/28 17:18:26;;;;;;;4.03;2.05;;;;;;;29.18;30.38;98464.84;5112858;28;20047;-79
2022/07/28 17:20:53;;;;;;;4.82;2.25;;;;;;;29.11;30.45;98478.50;5111515;28;20051;-80
2022/07/28 17:23:19;;;;;;;4.88;2.30;;;;;;;29.08;30.38;98471.56;5110151;27;20052;-79
2022/07/28 17:25:46;;;;;;;3.75;1.85;;;;;;;28.96;31.03;98455.41;5111852;28;20051;-79
2022/07/28 17:28:13;;;;;;;2.92;1.88;;;;;;;28.88;31.05;98460.97;5112643;28;20138;-80
2022/07/28 17:30:40;;;;;;;2.88;2.05;;;;;;;28.77;30.71;98486.44;5112652;28;20062;-79
2022/07/28 17:33:07;;;;;;;4.90;2.60;;;;;;;28.55;30.88;98466.91;5109730;28;20052;-79
2022/07/28 17:35:35;;;;;;;2.95;1.80;;;;;;;28.68;30.22;98505.16;5112481;28;20052;-80
2022/07/28 17:38:03;;;;;;;2.78;1.90;;;;;;;28.69;30.57;98500.38;5110211;28;20478;-79
2022/07/28 17:40:30;;;;;;;6.38;2.03;;;;;;;28.67;30.52;98500.69;5111469;28;20053;-79
